createdAt,value
2019-03-20T00:00:03.552Z,83.79
2019-03-20T00:05:08.435Z,83.34
2019-03-20T00:10:14.217Z,83.12
2019-03-20T00:15:09.546Z,82.92
2019-03-20T00:20:09.339Z,82.53
2019-03-20T00:25:07.698Z,82.63
2019-03-20T00:30:09.607Z,82.46
2019-03-20T00:35:08.000Z,82.5
2019-03-20T00:40:05.690Z,82.42
2019-03-20T00:45:03.596Z,82.22
2019-03-20T00:50:06.149Z,82.36
2019-03-20T00:55:04.973Z,82.34
2019-03-20T01:00:02.549Z,82.93
2019-03-20T01:05:15.597Z,82.88
2019-03-20T01:10:07.354Z,83.12
2019-03-20T01:15:04.188Z,82.95
2019-03-20T01:20:05.137Z,82.9
2019-03-20T01:25:05.927Z,82.87
2019-03-20T01:30:02.539Z,82.54
2019-03-20T01:35:06.810Z,82.6
2019-03-20T01:40:08.237Z,83.18
2019-03-20T01:45:04.433Z,83.69
2019-03-20T01:50:07.725Z,85.18
2019-03-20T01:55:07.222Z,85.89
2019-03-20T02:00:06.599Z,86.48
2019-03-20T02:05:09.930Z,87.93
2019-03-20T02:10:05.814Z,88.73
2019-03-20T02:15:05.255Z,88.25
2019-03-20T02:20:05.589Z,86.59
2019-03-20T02:25:07.579Z,85
2019-03-20T02:30:09.348Z,83.95
2019-03-20T02:35:07.492Z,83.83
2019-03-20T02:40:09.440Z,83.6
2019-03-20T02:45:05.061Z,83.91
2019-03-20T02:50:06.195Z,83.82
2019-03-20T02:55:06.988Z,83.86
2019-03-20T03:00:03.578Z,85.3
2019-03-20T03:05:07.086Z,87.2
2019-03-20T03:10:06.944Z,87.25
2019-03-20T03:15:04.383Z,87.46
2019-03-20T03:20:11.974Z,87.36
2019-03-20T03:25:06.912Z,86.9
2019-03-20T03:30:10.881Z,86.27
2019-03-20T03:35:16.577Z,85.48
2019-03-20T03:40:09.552Z,85.01
2019-03-20T03:45:06.537Z,84.47
2019-03-20T03:50:13.569Z,83.82
2019-03-20T03:55:12.373Z,83.33
2019-03-20T04:00:04.713Z,83.27
2019-03-20T04:05:07.661Z,82.92
2019-03-20T04:10:06.024Z,82.89
2019-03-20T04:15:06.140Z,83.04
2019-03-20T04:20:06.752Z,83.24
2019-03-20T04:25:10.059Z,83.73
2019-03-20T04:30:02.624Z,84.72
2019-03-20T04:35:08.425Z,85.18
2019-03-20T04:40:09.417Z,85.11
2019-03-20T04:45:03.299Z,85.21
2019-03-20T04:50:09.344Z,84.92
2019-03-20T04:55:08.518Z,84.37
2019-03-20T05:00:03.034Z,83.85
2019-03-20T05:05:09.710Z,82.79
2019-03-20T05:10:04.968Z,82.6
2019-03-20T05:15:10.372Z,82.59
2019-03-20T05:20:07.665Z,82.89
2019-03-20T05:25:08.483Z,82.86
2019-03-20T05:30:03.150Z,82.51
2019-03-20T05:35:06.448Z,82.36
2019-03-20T05:40:07.267Z,82.12
2019-03-20T05:45:02.836Z,82.03
2019-03-20T05:50:08.497Z,82.03
2019-03-20T05:55:05.762Z,82.21
2019-03-20T06:00:03.310Z,81.52
2019-03-20T06:05:05.716Z,81.12
2019-03-20T06:10:03.356Z,80.67
2019-03-20T06:15:05.374Z,80.09
2019-03-20T06:20:05.528Z,79.67
2019-03-20T06:25:10.375Z,79.12
2019-03-20T06:30:03.452Z,78.23
2019-03-20T06:35:09.615Z,77.77
2019-03-20T06:40:07.993Z,76.88
2019-03-20T06:45:03.180Z,76.35
2019-03-20T06:50:07.271Z,75.94
2019-03-20T06:55:07.060Z,74.72
2019-03-20T07:00:05.388Z,74.28
2019-03-20T07:05:06.093Z,73.64
2019-03-20T07:10:03.919Z,73.19
2019-03-20T07:15:06.743Z,72.7
2019-03-20T07:20:05.427Z,72.62
2019-03-20T07:25:06.046Z,72.61
2019-03-20T07:30:03.109Z,71.17
2019-03-20T07:35:05.315Z,70.91
2019-03-20T07:40:06.349Z,70.37
2019-03-20T07:45:03.953Z,69.83
2019-03-20T07:50:07.126Z,68.63
2019-03-20T07:55:08.574Z,67.76
2019-03-20T08:00:04.927Z,67.57
2019-03-20T08:05:06.623Z,66.55
2019-03-20T08:10:05.600Z,65.39
2019-03-20T08:15:04.421Z,65.36
2019-03-20T08:20:07.765Z,64.95
2019-03-20T08:25:10.267Z,62.94
2019-03-20T08:30:04.201Z,64.6
2019-03-20T08:35:09.033Z,62.47
2019-03-20T08:40:08.213Z,64.61
2019-03-20T08:45:04.739Z,62.82
2019-03-20T08:50:09.628Z,63.45
2019-03-20T08:55:07.648Z,63.58
2019-03-20T09:00:04.246Z,63.32
2019-03-20T09:05:10.484Z,62.26
2019-03-20T09:10:06.104Z,61.94
2019-03-20T09:15:03.934Z,61.09
2019-03-20T09:20:07.205Z,61.74
2019-03-20T09:25:06.269Z,61.5
2019-03-20T09:30:03.989Z,62.49
2019-03-20T09:35:07.059Z,61.82
2019-03-20T09:40:06.688Z,61.75
2019-03-20T09:45:03.763Z,62.33
2019-03-20T09:50:06.862Z,61.62
2019-03-20T09:55:07.530Z,61.82
2019-03-20T10:00:03.554Z,60.21
2019-03-20T10:05:06.606Z,62.47
2019-03-20T10:10:07.447Z,59.01
2019-03-20T10:15:06.652Z,59.74
2019-03-20T10:20:07.884Z,60.36
2019-03-20T10:25:08.769Z,61.95
2019-03-20T10:30:03.854Z,61.66
2019-03-20T10:35:07.627Z,60.2
2019-03-20T10:40:09.778Z,59.22
2019-03-20T10:45:03.881Z,60.91
2019-03-20T10:50:07.690Z,58.58
2019-03-20T10:55:09.743Z,59.92
2019-03-20T11:00:05.565Z,60.84
2019-03-20T11:05:09.996Z,61.48
2019-03-20T11:10:08.425Z,60.82
2019-03-20T11:15:03.495Z,59.82
2019-03-20T11:20:07.465Z,64.45
2019-03-20T11:25:08.042Z,62.52
2019-03-20T11:30:03.202Z,60.9
2019-03-20T11:35:07.287Z,62.15
2019-03-20T11:40:07.500Z,63.25
2019-03-20T11:45:03.619Z,62.16
2019-03-20T11:50:07.828Z,60.97
2019-03-20T11:55:06.716Z,62.43
2019-03-20T12:00:03.178Z,61.78
2019-03-20T12:05:07.297Z,62.13
2019-03-20T12:10:04.221Z,61.46
2019-03-20T12:15:03.488Z,63.81
2019-03-20T12:20:05.242Z,63.66
2019-03-20T12:25:05.993Z,61.84
2019-03-20T12:30:02.564Z,61.97
2019-03-20T12:35:05.550Z,62.27
2019-03-20T12:40:05.910Z,58.82
2019-03-20T12:45:03.654Z,59.2
2019-03-20T12:50:07.599Z,59.73
2019-03-20T12:55:09.526Z,58.17
2019-03-20T13:00:03.637Z,60.04
2019-03-20T13:05:07.163Z,59.53
2019-03-20T13:10:09.423Z,58.45
2019-03-20T13:15:03.590Z,58.01
2019-03-20T13:20:07.064Z,59.01
2019-03-20T13:25:10.872Z,60.69
2019-03-20T13:30:03.949Z,63.02
2019-03-20T13:35:08.910Z,59.36
2019-03-20T13:40:18.239Z,59.01
2019-03-20T13:45:03.336Z,62.42
2019-03-20T13:50:07.662Z,58.82
2019-03-20T13:55:07.361Z,59.21
2019-03-20T14:00:03.438Z,58.67
2019-03-20T14:05:05.998Z,58.82
2019-03-20T14:10:05.541Z,56.8
2019-03-20T14:15:03.623Z,58.03
2019-03-20T14:20:06.285Z,59.34
2019-03-20T14:25:05.502Z,57.39
2019-03-20T14:30:03.603Z,56.49
2019-03-20T14:35:05.390Z,57.44
2019-03-20T14:40:05.726Z,57.49
2019-03-20T14:45:03.790Z,59.07
2019-03-20T14:50:05.913Z,58.72
2019-03-20T14:55:06.367Z,59.03
2019-03-20T15:00:04.270Z,58
2019-03-20T15:05:07.381Z,58.77
2019-03-20T15:10:08.253Z,60.76
2019-03-20T15:15:05.869Z,60.56
2019-03-20T15:20:09.979Z,59.29
2019-03-20T15:25:07.593Z,59.25
2019-03-20T15:30:04.311Z,60.62
2019-03-20T15:35:09.285Z,60.48
2019-03-20T15:40:07.394Z,60.5
2019-03-20T15:45:04.216Z,60.57
2019-03-20T15:50:08.294Z,60.43
2019-03-20T15:55:07.438Z,61.25
2019-03-20T16:00:04.168Z,61.24
2019-03-20T16:05:08.764Z,61.12
2019-03-20T16:10:07.577Z,62.1
2019-03-20T16:15:04.250Z,62.73
2019-03-20T16:20:08.641Z,63.13
2019-03-20T16:25:08.007Z,62.94
2019-03-20T16:30:03.744Z,63.79
2019-03-20T16:35:07.144Z,63.57
2019-03-20T16:40:06.940Z,64.06
2019-03-20T16:45:03.131Z,65.2
2019-03-20T16:50:06.618Z,66.22
2019-03-20T16:55:07.715Z,66.09
2019-03-20T17:00:03.725Z,65.54
2019-03-20T17:05:07.375Z,65.87
2019-03-20T17:10:05.630Z,66.28
2019-03-20T17:15:04.595Z,66.96
2019-03-20T17:20:07.061Z,67.45
2019-03-20T17:25:10.988Z,67.77
2019-03-20T17:30:03.114Z,68.56
2019-03-20T17:35:09.346Z,69.7
2019-03-20T17:40:07.953Z,70.98
2019-03-20T17:45:03.039Z,71.82
2019-03-20T17:50:07.646Z,72.5
2019-03-20T17:55:07.875Z,73.11
2019-03-20T18:00:03.946Z,73.55
2019-03-20T18:05:07.244Z,74.68
2019-03-20T18:10:06.132Z,75.14
2019-03-20T18:15:03.276Z,75.95
2019-03-20T18:20:06.022Z,76.81
2019-03-20T18:25:07.038Z,77.35
2019-03-20T18:30:02.594Z,77.15
2019-03-20T18:35:06.641Z,77.39
2019-03-20T18:40:07.229Z,76.9
2019-03-20T18:45:02.981Z,77.68
2019-03-20T18:50:06.459Z,78.19
2019-03-20T18:55:06.897Z,77.91
2019-03-20T19:00:03.411Z,77.3
2019-03-20T19:05:07.509Z,77.33
2019-03-20T19:10:08.130Z,77.26
2019-03-20T19:15:03.012Z,78.07
2019-03-20T19:20:06.522Z,79.36
2019-03-20T19:25:09.756Z,79.99
2019-03-20T19:30:03.248Z,80.03
2019-03-20T19:35:05.466Z,81.93
2019-03-20T19:40:07.509Z,81.83
2019-03-20T19:45:03.012Z,81.83
2019-03-20T19:50:06.871Z,81.59
2019-03-20T19:55:07.056Z,82.09
2019-03-20T20:00:02.626Z,81.99
2019-03-20T20:05:19.914Z,82.12
2019-03-20T20:10:06.343Z,82.83
2019-03-20T20:15:02.889Z,83.57
2019-03-20T20:20:05.092Z,84.1
2019-03-20T20:25:04.381Z,83.57
2019-03-20T20:30:04.087Z,83.54
2019-03-20T20:35:06.047Z,83.85
2019-03-20T20:40:09.605Z,84.78
2019-03-20T20:45:06.484Z,84.82
2019-03-20T20:50:11.676Z,85.34
2019-03-20T20:55:11.492Z,85.67
2019-03-20T21:00:10.106Z,85.95
2019-03-20T21:05:14.439Z,86.07
2019-03-20T21:10:15.732Z,86.91
2019-03-20T21:15:14.363Z,86.71
2019-03-20T21:20:14.496Z,85.98
2019-03-20T21:25:14.658Z,85.68
2019-03-20T21:30:13.825Z,85.56
2019-03-20T21:35:16.951Z,85.66
2019-03-20T21:40:14.125Z,85.64
2019-03-20T21:45:13.830Z,85.88
2019-03-20T21:50:18.142Z,86.33
2019-03-20T21:55:15.128Z,86.5
2019-03-20T22:00:13.849Z,86.69
2019-03-20T22:05:22.762Z,86.38
2019-03-20T22:10:18.153Z,86.17
2019-03-20T22:15:13.521Z,86.13
2019-03-20T22:20:17.679Z,86.39
2019-03-20T22:25:14.289Z,86.69
2019-03-20T22:30:14.764Z,86.98
2019-03-20T22:35:13.103Z,87.26
2019-03-20T22:40:11.257Z,87.85
2019-03-20T22:45:11.156Z,87.96
2019-03-20T22:50:15.171Z,87.7
2019-03-20T22:55:17.213Z,87.89
2019-03-20T23:00:14.003Z,87.98
2019-03-20T23:05:16.488Z,87.74
2019-03-20T23:10:21.475Z,87.69
2019-03-20T23:15:08.677Z,87.4
2019-03-20T23:20:11.032Z,87.17
2019-03-20T23:25:09.148Z,87.21
2019-03-20T23:30:09.336Z,86.94
2019-03-20T23:35:14.546Z,87.03
2019-03-20T23:40:13.813Z,87.04
2019-03-20T23:45:13.099Z,87.3
2019-03-20T23:50:13.197Z,88.08
2019-03-20T23:55:14.912Z,88.78
